RYR6MQ LIME-LGIR
Flight info
| Callsign | RYR6MQ |
|---|---|
| Flight time | 2h 13m |
| Altitude | 37000 |
| Route | LOGDI DCT EKDIR DCT LOMED DCT LATAN DCT TRL UM601 MIL UL617 XAVIS |
| Aircraft | B738/M-SDE2E3FGHIRWXY/LB1 |
Departure
| Time | 2026-04-28 14:45 |
|---|---|
| Airport | Il Caravaggio International Airport (LIME) |
Arrival
| Time | 2026-04-28 16:58 |
|---|---|
| Airport | Heraklion International Nikos Kazantzakis Airport (LGIR) |
| Time | Latitude | Longitude | Altitude | Speed | Heading |
|---|---|---|---|---|---|
| 2026-04-28 14:22 | 45.66723 | 9.69589 | 786 ft | 0 kts | 195° |
| 2026-04-28 14:37 | 45.66735 | 9.69593 | 786 ft | 4 kts | 195° |
| 2026-04-28 14:37 | 45.66762 | 9.69603 | 786 ft | 4 kts | 195° |
| 2026-04-28 14:38 | 45.66783 | 9.69612 | 786 ft | 4 kts | 191° |
| 2026-04-28 14:38 | 45.66807 | 9.69609 | 786 ft | 4 kts | 139° |
| 2026-04-28 14:38 | 45.66821 | 9.69579 | 786 ft | 4 kts | 107° |
| 2026-04-28 14:38 | 45.66823 | 9.69571 | 786 ft | 0 kts | 105° |
| 2026-04-28 14:40 | 45.66807 | 9.69657 | 779 ft | 16 kts | 105° |
| 2026-04-28 14:40 | 45.66775 | 9.69812 | 786 ft | 16 kts | 106° |
| 2026-04-28 14:41 | 45.66746 | 9.69963 | 786 ft | 15 kts | 104° |
| 2026-04-28 14:41 | 45.66721 | 9.70108 | 786 ft | 15 kts | 104° |
| 2026-04-28 14:41 | 45.66696 | 9.70248 | 786 ft | 15 kts | 104° |
| 2026-04-28 14:41 | 45.66666 | 9.70413 | 786 ft | 17 kts | 104° |
| 2026-04-28 14:42 | 45.66637 | 9.70577 | 786 ft | 17 kts | 104° |
| 2026-04-28 14:42 | 45.66608 | 9.70736 | 786 ft | 16 kts | 106° |
| 2026-04-28 14:42 | 45.66577 | 9.70896 | 786 ft | 21 kts | 106° |
| 2026-04-28 14:42 | 45.66531 | 9.71114 | 786 ft | 23 kts | 108° |
| 2026-04-28 14:43 | 45.66480 | 9.71331 | 786 ft | 24 kts | 105° |
| 2026-04-28 14:43 | 45.66440 | 9.71570 | 786 ft | 25 kts | 95° |
| 2026-04-28 14:43 | 45.66471 | 9.71796 | 786 ft | 19 kts | 74° |
| 2026-04-28 14:43 | 45.66537 | 9.71911 | 786 ft | 12 kts | 348° |
| 2026-04-28 14:44 | 45.66575 | 9.71814 | 786 ft | 14 kts | 284° |
| 2026-04-28 14:44 | 45.66658 | 9.71371 | 786 ft | 80 kts | 285° |
| 2026-04-28 14:44 | 45.66857 | 9.70300 | 786 ft | 141 kts | 285° |
| 2026-04-28 14:44 | 45.67155 | 9.68724 | 909 ft | 179 kts | 285° |
| 2026-04-28 14:45 | 45.67507 | 9.67090 | 1740 ft | 170 kts | 287° |
| 2026-04-28 14:45 | 45.67536 | 9.65413 | 2349 ft | 174 kts | 244° |
| 2026-04-28 14:45 | 45.66712 | 9.64098 | 2731 ft | 194 kts | 204° |
| 2026-04-28 14:45 | 45.65323 | 9.63766 | 2976 ft | 215 kts | 181° |
| 2026-04-28 14:46 | 45.63757 | 9.63692 | 3176 ft | 235 kts | 181° |
| 2026-04-28 14:46 | 45.62095 | 9.63619 | 3629 ft | 243 kts | 181° |
| 2026-04-28 14:46 | 45.60394 | 9.63541 | 4240 ft | 246 kts | 181° |
| 2026-04-28 14:46 | 45.58678 | 9.63458 | 5012 ft | 247 kts | 181° |
| 2026-04-28 14:47 | 45.56962 | 9.63370 | 5906 ft | 247 kts | 182° |
| 2026-04-28 14:47 | 45.55242 | 9.63280 | 6672 ft | 248 kts | 182° |
| 2026-04-28 14:47 | 45.53511 | 9.63186 | 7375 ft | 250 kts | 182° |
| 2026-04-28 14:47 | 45.51761 | 9.63093 | 8053 ft | 253 kts | 183° |
| 2026-04-28 14:48 | 45.49994 | 9.62998 | 8761 ft | 255 kts | 183° |
| 2026-04-28 14:48 | 45.48209 | 9.62900 | 9467 ft | 258 kts | 184° |
| 2026-04-28 14:48 | 45.46407 | 9.62799 | 10163 ft | 261 kts | 184° |
| 2026-04-28 14:48 | 45.44583 | 9.62696 | 10790 ft | 263 kts | 184° |
| 2026-04-28 14:49 | 45.42741 | 9.62591 | 11430 ft | 266 kts | 184° |
| 2026-04-28 14:49 | 45.40903 | 9.62486 | 12075 ft | 269 kts | 185° |
| 2026-04-28 14:49 | 45.39023 | 9.62379 | 12746 ft | 272 kts | 185° |
| 2026-04-28 14:49 | 45.37115 | 9.62397 | 13399 ft | 279 kts | 171° |
| 2026-04-28 14:50 | 45.35279 | 9.63481 | 13786 ft | 299 kts | 152° |
| 2026-04-28 14:50 | 45.33451 | 9.65118 | 13955 ft | 322 kts | 149° |
| 2026-04-28 14:50 | 45.31492 | 9.66959 | 14105 ft | 344 kts | 149° |
| 2026-04-28 14:50 | 45.29470 | 9.68873 | 14242 ft | 364 kts | 149° |
| 2026-04-28 14:51 | 45.27304 | 9.70913 | 14359 ft | 384 kts | 148° |
| 2026-04-28 14:51 | 45.25018 | 9.73051 | 14480 ft | 402 kts | 149° |
| 2026-04-28 14:51 | 45.22632 | 9.75269 | 14640 ft | 417 kts | 149° |
| 2026-04-28 14:51 | 45.20180 | 9.77537 | 15034 ft | 424 kts | 149° |
| 2026-04-28 14:52 | 45.17698 | 9.79827 | 15578 ft | 427 kts | 149° |
| 2026-04-28 14:52 | 45.15196 | 9.82129 | 16113 ft | 430 kts | 149° |
| 2026-04-28 14:52 | 45.12676 | 9.84444 | 16678 ft | 433 kts | 149° |
| 2026-04-28 14:52 | 45.10138 | 9.86772 | 17171 ft | 437 kts | 149° |
| 2026-04-28 14:53 | 45.07574 | 9.89123 | 17630 ft | 442 kts | 149° |
| 2026-04-28 14:53 | 45.04985 | 9.91493 | 18104 ft | 445 kts | 149° |
| 2026-04-28 14:53 | 45.02372 | 9.93882 | 18550 ft | 449 kts | 149° |
| 2026-04-28 14:53 | 44.99742 | 9.96281 | 18956 ft | 451 kts | 150° |
| 2026-04-28 14:54 | 44.97058 | 9.98597 | 19404 ft | 453 kts | 152° |
| 2026-04-28 14:54 | 44.94322 | 10.00834 | 19811 ft | 456 kts | 153° |
| 2026-04-28 14:54 | 44.91566 | 10.03053 | 20336 ft | 456 kts | 153° |
| 2026-04-28 14:54 | 44.88804 | 10.05281 | 20772 ft | 459 kts | 153° |
| 2026-04-28 14:55 | 44.86031 | 10.07536 | 21142 ft | 462 kts | 153° |
| 2026-04-28 14:55 | 44.83238 | 10.09821 | 21509 ft | 465 kts | 153° |
| 2026-04-28 14:55 | 44.80433 | 10.12125 | 21878 ft | 468 kts | 152° |
| 2026-04-28 14:55 | 44.78569 | 10.13657 | 22122 ft | 470 kts | 153° |
| 2026-04-28 14:56 | 44.75741 | 10.15979 | 22487 ft | 472 kts | 153° |
| 2026-04-28 14:56 | 44.72896 | 10.18308 | 22824 ft | 475 kts | 153° |
| 2026-04-28 14:56 | 44.70058 | 10.20729 | 23135 ft | 479 kts | 149° |
| 2026-04-28 14:56 | 44.67310 | 10.23421 | 23471 ft | 483 kts | 147° |
| 2026-04-28 14:57 | 44.64598 | 10.26225 | 23787 ft | 485 kts | 146° |
| 2026-04-28 14:57 | 44.61890 | 10.29067 | 24094 ft | 487 kts | 146° |
| 2026-04-28 14:57 | 44.59164 | 10.31917 | 24468 ft | 489 kts | 146° |
| 2026-04-28 14:57 | 44.56427 | 10.34749 | 24734 ft | 491 kts | 146° |
| 2026-04-28 14:58 | 44.53662 | 10.37581 | 25003 ft | 492 kts | 146° |
| 2026-04-28 14:58 | 44.50886 | 10.40403 | 25259 ft | 495 kts | 146° |
| 2026-04-28 14:58 | 44.48087 | 10.43237 | 25509 ft | 497 kts | 146° |
| 2026-04-28 14:58 | 44.45280 | 10.46073 | 25771 ft | 499 kts | 146° |
| 2026-04-28 14:59 | 44.42460 | 10.48919 | 26021 ft | 500 kts | 146° |
| 2026-04-28 14:59 | 44.39633 | 10.51771 | 26250 ft | 502 kts | 146° |
| 2026-04-28 14:59 | 44.36800 | 10.54626 | 26474 ft | 502 kts | 146° |
| 2026-04-28 14:59 | 44.33968 | 10.57479 | 26808 ft | 501 kts | 147° |
| 2026-04-28 15:00 | 44.31142 | 10.60323 | 27087 ft | 501 kts | 147° |
| 2026-04-28 15:00 | 44.28319 | 10.63160 | 27362 ft | 501 kts | 147° |
| 2026-04-28 15:00 | 44.25492 | 10.65999 | 27685 ft | 500 kts | 147° |
| 2026-04-28 15:00 | 44.22669 | 10.68829 | 27998 ft | 499 kts | 146° |
| 2026-04-28 15:01 | 44.19994 | 10.71824 | 28309 ft | 501 kts | 139° |
| 2026-04-28 15:01 | 44.17623 | 10.75397 | 28560 ft | 503 kts | 131° |
| 2026-04-28 15:01 | 44.15410 | 10.79157 | 28903 ft | 502 kts | 130° |
| 2026-04-28 15:01 | 44.13208 | 10.82923 | 29242 ft | 501 kts | 131° |
| 2026-04-28 15:02 | 44.10995 | 10.86656 | 29539 ft | 500 kts | 131° |
| 2026-04-28 15:02 | 44.08757 | 10.90368 | 29733 ft | 500 kts | 132° |
| 2026-04-28 15:02 | 44.06516 | 10.94054 | 29990 ft | 500 kts | 132° |
| 2026-04-28 15:02 | 44.04270 | 10.97731 | 30286 ft | 498 kts | 132° |
| 2026-04-28 15:03 | 44.02048 | 11.01416 | 30544 ft | 497 kts | 130° |
| 2026-04-28 15:03 | 43.99939 | 11.05240 | 30703 ft | 499 kts | 128° |
| 2026-04-28 15:03 | 43.97911 | 11.09150 | 30890 ft | 500 kts | 127° |
| 2026-04-28 15:03 | 43.95915 | 11.13099 | 31120 ft | 499 kts | 126° |
| 2026-04-28 15:04 | 43.93927 | 11.17045 | 31412 ft | 498 kts | 126° |
| 2026-04-28 15:04 | 43.91935 | 11.20976 | 31644 ft | 498 kts | 127° |
| 2026-04-28 15:04 | 43.89931 | 11.24891 | 31870 ft | 498 kts | 127° |
| 2026-04-28 15:04 | 43.87915 | 11.28792 | 32184 ft | 497 kts | 127° |
| 2026-04-28 15:05 | 43.85892 | 11.32681 | 32418 ft | 497 kts | 127° |
| 2026-04-28 15:05 | 43.83865 | 11.36562 | 32665 ft | 496 kts | 128° |
| 2026-04-28 15:05 | 43.81841 | 11.40428 | 32922 ft | 496 kts | 127° |
| 2026-04-28 15:05 | 43.79817 | 11.44287 | 33171 ft | 495 kts | 127° |
| 2026-04-28 15:06 | 43.77791 | 11.48147 | 33405 ft | 495 kts | 127° |
| 2026-04-28 15:06 | 43.75765 | 11.52002 | 33662 ft | 495 kts | 127° |
| 2026-04-28 15:06 | 43.73742 | 11.55848 | 33915 ft | 494 kts | 127° |
| 2026-04-28 15:06 | 43.71720 | 11.59689 | 34145 ft | 494 kts | 127° |
| 2026-04-28 15:07 | 43.69698 | 11.63524 | 34317 ft | 494 kts | 127° |
| 2026-04-28 15:07 | 43.67674 | 11.67359 | 34509 ft | 494 kts | 127° |
| 2026-04-28 15:07 | 43.65649 | 11.71189 | 34714 ft | 493 kts | 127° |
| 2026-04-28 15:07 | 43.63627 | 11.75011 | 34873 ft | 494 kts | 127° |
| 2026-04-28 15:08 | 43.61598 | 11.78840 | 35011 ft | 494 kts | 127° |
| 2026-04-28 15:08 | 43.59566 | 11.82669 | 35201 ft | 494 kts | 127° |
| 2026-04-28 15:08 | 43.57541 | 11.86481 | 35433 ft | 492 kts | 127° |
| 2026-04-28 15:08 | 43.55516 | 11.90288 | 35619 ft | 492 kts | 127° |
| 2026-04-28 15:09 | 43.53490 | 11.94091 | 35771 ft | 493 kts | 127° |
| 2026-04-28 15:09 | 43.51461 | 11.97896 | 35949 ft | 493 kts | 127° |
| 2026-04-28 15:09 | 43.49431 | 12.01697 | 36132 ft | 492 kts | 127° |
| 2026-04-28 15:09 | 43.48089 | 12.04206 | 36246 ft | 492 kts | 127° |
| 2026-04-28 15:10 | 43.45372 | 12.09281 | 36452 ft | 492 kts | 127° |
| 2026-04-28 15:10 | 43.43342 | 12.13068 | 36623 ft | 492 kts | 127° |
| 2026-04-28 15:10 | 43.41309 | 12.16855 | 36769 ft | 492 kts | 127° |
| 2026-04-28 15:10 | 43.39275 | 12.20640 | 36917 ft | 492 kts | 127° |
| 2026-04-28 15:11 | 43.37242 | 12.24418 | 37029 ft | 492 kts | 127° |
| 2026-04-28 15:11 | 43.33158 | 12.31991 | 37022 ft | 493 kts | 127° |
| 2026-04-28 15:12 | 43.29108 | 12.39482 | 37012 ft | 491 kts | 127° |
| 2026-04-28 15:12 | 43.25037 | 12.46994 | 36999 ft | 490 kts | 128° |
| 2026-04-28 15:13 | 43.20968 | 12.54481 | 37002 ft | 490 kts | 128° |
| 2026-04-28 15:13 | 43.16895 | 12.61959 | 36999 ft | 490 kts | 128° |
| 2026-04-28 15:14 | 43.12815 | 12.69430 | 36999 ft | 490 kts | 128° |
| 2026-04-28 15:14 | 43.08733 | 12.76886 | 36998 ft | 489 kts | 128° |
| 2026-04-28 15:15 | 43.04648 | 12.84328 | 37020 ft | 489 kts | 128° |
| 2026-04-28 15:15 | 43.00559 | 12.91760 | 37024 ft | 489 kts | 128° |
| 2026-04-28 15:16 | 42.96466 | 12.99178 | 37036 ft | 489 kts | 128° |
| 2026-04-28 15:16 | 42.92370 | 13.06583 | 37039 ft | 489 kts | 128° |
| 2026-04-28 15:17 | 42.88267 | 13.13984 | 37053 ft | 490 kts | 128° |
| 2026-04-28 15:17 | 42.84156 | 13.21383 | 37038 ft | 489 kts | 128° |
| 2026-04-28 15:18 | 42.80042 | 13.28766 | 37007 ft | 489 kts | 128° |
| 2026-04-28 15:18 | 42.75929 | 13.36129 | 37051 ft | 489 kts | 128° |
| 2026-04-28 15:19 | 42.71800 | 13.43504 | 37051 ft | 490 kts | 128° |
| 2026-04-28 15:19 | 42.67658 | 13.50883 | 37045 ft | 491 kts | 128° |
| 2026-04-28 15:20 | 42.63512 | 13.58251 | 37044 ft | 491 kts | 128° |
| 2026-04-28 15:20 | 42.59364 | 13.65604 | 37035 ft | 490 kts | 128° |
| 2026-04-28 15:21 | 42.55213 | 13.72944 | 37040 ft | 490 kts | 128° |
| 2026-04-28 15:21 | 42.51055 | 13.80278 | 37040 ft | 490 kts | 128° |
| 2026-04-28 15:22 | 42.46892 | 13.87603 | 37046 ft | 491 kts | 128° |
| 2026-04-28 15:22 | 42.42719 | 13.94929 | 37041 ft | 491 kts | 129° |
| 2026-04-28 15:23 | 42.38541 | 14.02246 | 37037 ft | 491 kts | 129° |
| 2026-04-28 15:23 | 42.34359 | 14.09550 | 37011 ft | 491 kts | 129° |
| 2026-04-28 15:24 | 42.30177 | 14.16838 | 37024 ft | 491 kts | 129° |
| 2026-04-28 15:24 | 42.25984 | 14.24127 | 37029 ft | 491 kts | 129° |
| 2026-04-28 15:25 | 42.21818 | 14.31351 | 37026 ft | 491 kts | 129° |
| 2026-04-28 15:25 | 42.17617 | 14.38617 | 37032 ft | 491 kts | 129° |
| 2026-04-28 15:26 | 42.13415 | 14.45869 | 37034 ft | 491 kts | 129° |
| 2026-04-28 15:26 | 42.09209 | 14.53111 | 37027 ft | 491 kts | 129° |
| 2026-04-28 15:27 | 42.04995 | 14.60348 | 37024 ft | 491 kts | 129° |
| 2026-04-28 15:27 | 42.00778 | 14.67573 | 37021 ft | 491 kts | 129° |
| 2026-04-28 15:28 | 41.96562 | 14.74779 | 37029 ft | 491 kts | 129° |
| 2026-04-28 15:28 | 41.92338 | 14.81982 | 37021 ft | 491 kts | 129° |
| 2026-04-28 15:29 | 41.88110 | 14.89174 | 37031 ft | 491 kts | 129° |
| 2026-04-28 15:29 | 41.83878 | 14.96356 | 37018 ft | 491 kts | 129° |
| 2026-04-28 15:30 | 41.79638 | 15.03534 | 37023 ft | 491 kts | 129° |
| 2026-04-28 15:30 | 41.75393 | 15.10704 | 37015 ft | 491 kts | 129° |
| 2026-04-28 15:31 | 41.71145 | 15.17861 | 37017 ft | 491 kts | 129° |
| 2026-04-28 15:31 | 41.66891 | 15.25013 | 37011 ft | 491 kts | 129° |
| 2026-04-28 15:32 | 41.62632 | 15.32155 | 37023 ft | 491 kts | 129° |
| 2026-04-28 15:32 | 41.58371 | 15.39285 | 37021 ft | 491 kts | 129° |
| 2026-04-28 15:33 | 41.54105 | 15.46404 | 37019 ft | 490 kts | 130° |
| 2026-04-28 15:33 | 41.49870 | 15.53457 | 37023 ft | 490 kts | 130° |
| 2026-04-28 15:34 | 41.45606 | 15.60542 | 37018 ft | 490 kts | 130° |
| 2026-04-28 15:34 | 41.41337 | 15.67617 | 37022 ft | 490 kts | 130° |
| 2026-04-28 15:35 | 41.37063 | 15.74684 | 37024 ft | 490 kts | 130° |
| 2026-04-28 15:35 | 41.30651 | 15.85258 | 37028 ft | 490 kts | 130° |
| 2026-04-28 15:36 | 41.26371 | 15.92294 | 37030 ft | 489 kts | 130° |
| 2026-04-28 15:36 | 41.22088 | 15.99320 | 37034 ft | 489 kts | 130° |
| 2026-04-28 15:37 | 41.17797 | 16.06341 | 37035 ft | 489 kts | 130° |
| 2026-04-28 15:37 | 41.14203 | 16.12211 | 37036 ft | 489 kts | 130° |
| 2026-04-28 15:38 | 41.09208 | 16.20349 | 37044 ft | 489 kts | 130° |
| 2026-04-28 15:38 | 41.04905 | 16.27343 | 37042 ft | 489 kts | 130° |
| 2026-04-28 15:39 | 41.00602 | 16.34321 | 37038 ft | 489 kts | 130° |
| 2026-04-28 15:39 | 40.96294 | 16.41291 | 37047 ft | 489 kts | 130° |
| 2026-04-28 15:40 | 40.91985 | 16.48246 | 37048 ft | 489 kts | 130° |
| 2026-04-28 15:40 | 40.87672 | 16.55191 | 37053 ft | 489 kts | 130° |
| 2026-04-28 15:41 | 40.83352 | 16.62133 | 37047 ft | 489 kts | 130° |
| 2026-04-28 15:41 | 40.79031 | 16.69062 | 37056 ft | 489 kts | 130° |
| 2026-04-28 15:42 | 40.74705 | 16.75982 | 37042 ft | 489 kts | 130° |
| 2026-04-28 15:42 | 40.71103 | 16.81731 | 37065 ft | 489 kts | 130° |
| 2026-04-28 15:43 | 40.66773 | 16.88629 | 37049 ft | 489 kts | 130° |
| 2026-04-28 15:43 | 40.62438 | 16.95519 | 37051 ft | 489 kts | 130° |
| 2026-04-28 15:44 | 40.58098 | 17.02403 | 37053 ft | 488 kts | 131° |
| 2026-04-28 15:44 | 40.53756 | 17.09273 | 37062 ft | 489 kts | 131° |
| 2026-04-28 15:45 | 40.49407 | 17.16139 | 37052 ft | 489 kts | 131° |
| 2026-04-28 15:45 | 40.45052 | 17.23000 | 37044 ft | 489 kts | 131° |
| 2026-04-28 15:46 | 40.40694 | 17.29849 | 37052 ft | 489 kts | 131° |
| 2026-04-28 15:46 | 40.36330 | 17.36694 | 37051 ft | 489 kts | 131° |
| 2026-04-28 15:47 | 40.31960 | 17.43532 | 37055 ft | 489 kts | 131° |
| 2026-04-28 15:47 | 40.27586 | 17.50361 | 37055 ft | 489 kts | 131° |
| 2026-04-28 15:48 | 40.23205 | 17.57187 | 37056 ft | 489 kts | 131° |
| 2026-04-28 15:48 | 40.18821 | 17.64002 | 37049 ft | 490 kts | 131° |
| 2026-04-28 15:49 | 40.14432 | 17.70809 | 37057 ft | 490 kts | 131° |
| 2026-04-28 15:49 | 40.10040 | 17.77606 | 37056 ft | 490 kts | 131° |
| 2026-04-28 15:50 | 40.05638 | 17.84405 | 37059 ft | 490 kts | 131° |
| 2026-04-28 15:50 | 40.01232 | 17.91194 | 37057 ft | 490 kts | 131° |
| 2026-04-28 15:51 | 39.96820 | 17.97978 | 37060 ft | 490 kts | 131° |
| 2026-04-28 15:51 | 39.92402 | 18.04755 | 37060 ft | 491 kts | 131° |
| 2026-04-28 15:52 | 39.87981 | 18.11523 | 37059 ft | 491 kts | 131° |
| 2026-04-28 15:52 | 39.83582 | 18.18243 | 37065 ft | 491 kts | 131° |
| 2026-04-28 15:53 | 39.79147 | 18.25003 | 37063 ft | 491 kts | 131° |
| 2026-04-28 15:53 | 39.74706 | 18.31758 | 37063 ft | 491 kts | 132° |
| 2026-04-28 15:54 | 39.70264 | 18.38499 | 37063 ft | 491 kts | 132° |
| 2026-04-28 15:54 | 39.65812 | 18.45241 | 37070 ft | 491 kts | 132° |
| 2026-04-28 15:55 | 39.61358 | 18.51971 | 37052 ft | 492 kts | 132° |
| 2026-04-28 15:55 | 39.56897 | 18.58697 | 37065 ft | 492 kts | 132° |
| 2026-04-28 15:56 | 39.52424 | 18.65427 | 37063 ft | 493 kts | 132° |
| 2026-04-28 15:56 | 39.47946 | 18.72151 | 37063 ft | 493 kts | 132° |
| 2026-04-28 15:57 | 39.43463 | 18.78867 | 37068 ft | 493 kts | 132° |
| 2026-04-28 15:57 | 39.38973 | 18.85580 | 37068 ft | 494 kts | 132° |
| 2026-04-28 15:58 | 39.34478 | 18.92288 | 37067 ft | 494 kts | 132° |
| 2026-04-28 15:58 | 39.29979 | 18.98988 | 37063 ft | 494 kts | 132° |
| 2026-04-28 15:59 | 39.25821 | 19.06070 | 37075 ft | 496 kts | 126° |
| 2026-04-28 15:59 | 39.21971 | 19.13379 | 37066 ft | 496 kts | 125° |
| 2026-04-28 16:00 | 39.18087 | 19.20751 | 37061 ft | 497 kts | 125° |
| 2026-04-28 16:00 | 39.14157 | 19.28077 | 37060 ft | 497 kts | 126° |
| 2026-04-28 16:01 | 39.10200 | 19.35376 | 37059 ft | 497 kts | 126° |
| 2026-04-28 16:01 | 39.06231 | 19.42668 | 37063 ft | 497 kts | 126° |
| 2026-04-28 16:02 | 39.02259 | 19.49953 | 37068 ft | 497 kts | 126° |
| 2026-04-28 16:02 | 38.98287 | 19.57228 | 37067 ft | 497 kts | 126° |
| 2026-04-28 16:03 | 38.94308 | 19.64500 | 37077 ft | 497 kts | 126° |
| 2026-04-28 16:03 | 38.90330 | 19.71754 | 37076 ft | 497 kts | 126° |
| 2026-04-28 16:04 | 38.86344 | 19.79005 | 37074 ft | 497 kts | 126° |
| 2026-04-28 16:04 | 38.82356 | 19.86244 | 37076 ft | 497 kts | 126° |
| 2026-04-28 16:05 | 38.78361 | 19.93479 | 37077 ft | 497 kts | 126° |
| 2026-04-28 16:05 | 38.74366 | 20.00698 | 37075 ft | 497 kts | 126° |
| 2026-04-28 16:06 | 38.70366 | 20.07910 | 37058 ft | 497 kts | 126° |
| 2026-04-28 16:06 | 38.66356 | 20.15125 | 37089 ft | 498 kts | 126° |
| 2026-04-28 16:07 | 38.62332 | 20.22349 | 37079 ft | 499 kts | 126° |
| 2026-04-28 16:08 | 38.56281 | 20.33180 | 37077 ft | 500 kts | 126° |
| 2026-04-28 16:08 | 38.52232 | 20.40408 | 37076 ft | 500 kts | 126° |
| 2026-04-28 16:09 | 38.46181 | 20.51179 | 37082 ft | 500 kts | 126° |
| 2026-04-28 16:10 | 38.40084 | 20.61996 | 37067 ft | 501 kts | 126° |
| 2026-04-28 16:10 | 38.33970 | 20.72810 | 37064 ft | 502 kts | 127° |
| 2026-04-28 16:11 | 38.25787 | 20.87224 | 37073 ft | 503 kts | 126° |
| 2026-04-28 16:12 | 38.19627 | 20.98034 | 37069 ft | 503 kts | 127° |
| 2026-04-28 16:13 | 38.13454 | 21.08831 | 37071 ft | 504 kts | 127° |
| 2026-04-28 16:14 | 38.05204 | 21.23204 | 37059 ft | 504 kts | 127° |
| 2026-04-28 16:15 | 37.96932 | 21.37554 | 37082 ft | 505 kts | 127° |
| 2026-04-28 16:15 | 37.92780 | 21.44733 | 37078 ft | 505 kts | 127° |
| 2026-04-28 16:16 | 37.86539 | 21.55496 | 37081 ft | 506 kts | 127° |
| 2026-04-28 16:17 | 37.80286 | 21.66244 | 37085 ft | 506 kts | 127° |
| 2026-04-28 16:17 | 37.76110 | 21.73401 | 37092 ft | 506 kts | 127° |
| 2026-04-28 16:18 | 37.71930 | 21.80551 | 37081 ft | 506 kts | 127° |
| 2026-04-28 16:18 | 37.67746 | 21.87692 | 37093 ft | 506 kts | 127° |
| 2026-04-28 16:19 | 37.63553 | 21.94832 | 37097 ft | 507 kts | 127° |
| 2026-04-28 16:19 | 37.59355 | 22.01968 | 37096 ft | 507 kts | 127° |
| 2026-04-28 16:20 | 37.55149 | 22.09101 | 37099 ft | 507 kts | 127° |
| 2026-04-28 16:20 | 37.50941 | 22.16222 | 37112 ft | 506 kts | 127° |
| 2026-04-28 16:21 | 37.46734 | 22.23328 | 37100 ft | 506 kts | 127° |
| 2026-04-28 16:21 | 37.42525 | 22.30424 | 37097 ft | 506 kts | 127° |
| 2026-04-28 16:22 | 37.39054 | 22.38077 | 37083 ft | 505 kts | 109° |
| 2026-04-28 16:22 | 37.36697 | 22.46389 | 37110 ft | 505 kts | 108° |
| 2026-04-28 16:23 | 37.34359 | 22.54730 | 37102 ft | 506 kts | 108° |
| 2026-04-28 16:23 | 37.31961 | 22.63048 | 37093 ft | 507 kts | 109° |
| 2026-04-28 16:24 | 37.29541 | 22.71313 | 37089 ft | 508 kts | 109° |
| 2026-04-28 16:24 | 37.27080 | 22.79684 | 37101 ft | 508 kts | 109° |
| 2026-04-28 16:25 | 37.24632 | 22.87996 | 37082 ft | 507 kts | 109° |
| 2026-04-28 16:25 | 37.22182 | 22.96294 | 37081 ft | 507 kts | 109° |
| 2026-04-28 16:26 | 37.19748 | 23.04517 | 37083 ft | 506 kts | 109° |
| 2026-04-28 16:26 | 37.17294 | 23.12784 | 37087 ft | 506 kts | 109° |
| 2026-04-28 16:27 | 37.14837 | 23.21036 | 37075 ft | 505 kts | 109° |
| 2026-04-28 16:28 | 37.11138 | 23.33402 | 37081 ft | 505 kts | 109° |
| 2026-04-28 16:28 | 37.08653 | 23.41637 | 37080 ft | 505 kts | 109° |
| 2026-04-28 16:29 | 37.04919 | 23.53969 | 37066 ft | 505 kts | 109° |
| 2026-04-28 16:30 | 37.01176 | 23.66287 | 37072 ft | 505 kts | 110° |
| 2026-04-28 16:30 | 36.98664 | 23.74529 | 36436 ft | 511 kts | 110° |
| 2026-04-28 16:30 | 36.97830 | 23.77259 | 36177 ft | 505 kts | 109° |
| 2026-04-28 16:31 | 36.96585 | 23.81328 | 35762 ft | 497 kts | 109° |
| 2026-04-28 16:31 | 36.95353 | 23.85348 | 35343 ft | 493 kts | 109° |
| 2026-04-28 16:31 | 36.94131 | 23.89332 | 34901 ft | 488 kts | 109° |
| 2026-04-28 16:31 | 36.92918 | 23.93285 | 34331 ft | 487 kts | 109° |
| 2026-04-28 16:32 | 36.91707 | 23.97227 | 33649 ft | 484 kts | 109° |
| 2026-04-28 16:32 | 36.89287 | 24.05090 | 31267 ft | 488 kts | 109° |
| 2026-04-28 16:32 | 36.88094 | 24.08967 | 31010 ft | 469 kts | 109° |
| 2026-04-28 16:33 | 36.86915 | 24.12798 | 30538 ft | 476 kts | 109° |
| 2026-04-28 16:33 | 36.86125 | 24.15366 | 30287 ft | 481 kts | 109° |
| 2026-04-28 16:33 | 36.84507 | 24.20625 | 29666 ft | 489 kts | 109° |
| 2026-04-28 16:33 | 36.83276 | 24.24613 | 29206 ft | 494 kts | 109° |
| 2026-04-28 16:34 | 36.82034 | 24.28629 | 28758 ft | 498 kts | 109° |
| 2026-04-28 16:34 | 36.80783 | 24.32665 | 28301 ft | 500 kts | 109° |
| 2026-04-28 16:34 | 36.79526 | 24.36717 | 27845 ft | 502 kts | 109° |
| 2026-04-28 16:34 | 36.78263 | 24.40782 | 27396 ft | 504 kts | 109° |
| 2026-04-28 16:35 | 36.76992 | 24.44867 | 26929 ft | 505 kts | 109° |
| 2026-04-28 16:35 | 36.75508 | 24.48852 | 26451 ft | 509 kts | 118° |
| 2026-04-28 16:35 | 36.73521 | 24.52521 | 26002 ft | 512 kts | 127° |
| 2026-04-28 16:35 | 36.71128 | 24.55821 | 25544 ft | 515 kts | 136° |
| 2026-04-28 16:36 | 36.68367 | 24.58708 | 25112 ft | 520 kts | 141° |
| 2026-04-28 16:36 | 36.65571 | 24.61480 | 24624 ft | 508 kts | 141° |
| 2026-04-28 16:36 | 36.62831 | 24.64191 | 24170 ft | 500 kts | 141° |
| 2026-04-28 16:36 | 36.60123 | 24.66888 | 23728 ft | 499 kts | 141° |
| 2026-04-28 16:37 | 36.57427 | 24.69597 | 23196 ft | 496 kts | 140° |
| 2026-04-28 16:37 | 36.54760 | 24.72294 | 22713 ft | 491 kts | 140° |
| 2026-04-28 16:37 | 36.52123 | 24.74970 | 22259 ft | 487 kts | 140° |
| 2026-04-28 16:38 | 36.46913 | 24.80260 | 21357 ft | 480 kts | 140° |
| 2026-04-28 16:38 | 36.44330 | 24.82879 | 20922 ft | 478 kts | 140° |
| 2026-04-28 16:38 | 36.41760 | 24.85482 | 20448 ft | 476 kts | 141° |
| 2026-04-28 16:38 | 36.39201 | 24.88071 | 20000 ft | 474 kts | 141° |
| 2026-04-28 16:39 | 36.36651 | 24.90648 | 19565 ft | 472 kts | 141° |
| 2026-04-28 16:39 | 36.34110 | 24.93211 | 19130 ft | 469 kts | 141° |
| 2026-04-28 16:39 | 36.31585 | 24.95757 | 18698 ft | 466 kts | 141° |
| 2026-04-28 16:39 | 36.29079 | 24.98282 | 18246 ft | 464 kts | 141° |
| 2026-04-28 16:40 | 36.26581 | 25.00797 | 17769 ft | 460 kts | 141° |
| 2026-04-28 16:40 | 36.24140 | 25.03251 | 17320 ft | 455 kts | 141° |
| 2026-04-28 16:40 | 36.21698 | 25.05706 | 16883 ft | 450 kts | 141° |
| 2026-04-28 16:40 | 36.19279 | 25.08135 | 16460 ft | 445 kts | 141° |
| 2026-04-28 16:41 | 36.16883 | 25.10539 | 16049 ft | 441 kts | 141° |
| 2026-04-28 16:41 | 36.14509 | 25.12920 | 15638 ft | 438 kts | 141° |
| 2026-04-28 16:41 | 36.12150 | 25.15283 | 15218 ft | 435 kts | 141° |
| 2026-04-28 16:41 | 36.09809 | 25.17626 | 14810 ft | 431 kts | 141° |
| 2026-04-28 16:42 | 36.07482 | 25.19953 | 14406 ft | 429 kts | 141° |
| 2026-04-28 16:42 | 36.05169 | 25.22265 | 14011 ft | 427 kts | 141° |
| 2026-04-28 16:42 | 36.02866 | 25.24565 | 13564 ft | 425 kts | 141° |
| 2026-04-28 16:42 | 36.00582 | 25.26845 | 13119 ft | 420 kts | 141° |
| 2026-04-28 16:43 | 35.98319 | 25.29102 | 12701 ft | 417 kts | 141° |
| 2026-04-28 16:43 | 35.96065 | 25.31348 | 12297 ft | 416 kts | 141° |
| 2026-04-28 16:43 | 35.93824 | 25.33579 | 11893 ft | 412 kts | 141° |
| 2026-04-28 16:43 | 35.91597 | 25.35795 | 11517 ft | 409 kts | 141° |
| 2026-04-28 16:44 | 35.89389 | 25.37988 | 11161 ft | 407 kts | 141° |
| 2026-04-28 16:44 | 35.87187 | 25.40176 | 10769 ft | 407 kts | 141° |
| 2026-04-28 16:44 | 35.84987 | 25.42360 | 10374 ft | 406 kts | 140° |
| 2026-04-28 16:44 | 35.82790 | 25.44539 | 10058 ft | 403 kts | 140° |
| 2026-04-28 16:45 | 35.80616 | 25.46695 | 9726 ft | 401 kts | 140° |
| 2026-04-28 16:45 | 35.78453 | 25.48839 | 9387 ft | 390 kts | 140° |
| 2026-04-28 16:45 | 35.76405 | 25.50866 | 9223 ft | 366 kts | 140° |
| 2026-04-28 16:45 | 35.74480 | 25.52771 | 9040 ft | 344 kts | 140° |
| 2026-04-28 16:46 | 35.72674 | 25.54558 | 8914 ft | 323 kts | 140° |
| 2026-04-28 16:46 | 35.70966 | 25.56245 | 8771 ft | 306 kts | 140° |
| 2026-04-28 16:46 | 35.69350 | 25.57841 | 8660 ft | 290 kts | 140° |
| 2026-04-28 16:46 | 35.67790 | 25.59376 | 8275 ft | 286 kts | 140° |
| 2026-04-28 16:47 | 35.66240 | 25.60899 | 7869 ft | 284 kts | 140° |
| 2026-04-28 16:47 | 35.64701 | 25.62409 | 7426 ft | 284 kts | 140° |
| 2026-04-28 16:47 | 35.63155 | 25.63925 | 6962 ft | 284 kts | 140° |
| 2026-04-28 16:47 | 35.61557 | 25.65365 | 6449 ft | 288 kts | 153° |
| 2026-04-28 16:48 | 35.59617 | 25.65780 | 6006 ft | 283 kts | 192° |
| 2026-04-28 16:48 | 35.57913 | 25.64794 | 5680 ft | 267 kts | 229° |
| 2026-04-28 16:48 | 35.56936 | 25.62944 | 5482 ft | 256 kts | 247° |
| 2026-04-28 16:48 | 35.56115 | 25.61002 | 5210 ft | 256 kts | 246° |
| 2026-04-28 16:49 | 35.55260 | 25.59084 | 4953 ft | 256 kts | 244° |
| 2026-04-28 16:49 | 35.54370 | 25.57199 | 4689 ft | 255 kts | 243° |
| 2026-04-28 16:49 | 35.53454 | 25.55333 | 4425 ft | 255 kts | 242° |
| 2026-04-28 16:49 | 35.52521 | 25.53485 | 4166 ft | 254 kts | 242° |
| 2026-04-28 16:50 | 35.51581 | 25.51653 | 3909 ft | 252 kts | 242° |
| 2026-04-28 16:50 | 35.50652 | 25.49867 | 3701 ft | 243 kts | 240° |
| 2026-04-28 16:50 | 35.49765 | 25.48174 | 3582 ft | 231 kts | 241° |
| 2026-04-28 16:50 | 35.48904 | 25.46537 | 3494 ft | 226 kts | 240° |
| 2026-04-28 16:51 | 35.48050 | 25.44916 | 3407 ft | 228 kts | 241° |
| 2026-04-28 16:51 | 35.47182 | 25.43267 | 3333 ft | 231 kts | 241° |
| 2026-04-28 16:51 | 35.46322 | 25.41643 | 3211 ft | 221 kts | 241° |
| 2026-04-28 16:51 | 35.45313 | 25.40282 | 3017 ft | 227 kts | 211° |
| 2026-04-28 16:52 | 35.43754 | 25.39969 | 2992 ft | 233 kts | 166° |
| 2026-04-28 16:52 | 35.42321 | 25.40816 | 3010 ft | 229 kts | 148° |
| 2026-04-28 16:52 | 35.40935 | 25.41801 | 2991 ft | 230 kts | 149° |
| 2026-04-28 16:52 | 35.39556 | 25.42763 | 2976 ft | 227 kts | 150° |
| 2026-04-28 16:53 | 35.38163 | 25.43652 | 2962 ft | 225 kts | 163° |
| 2026-04-28 16:53 | 35.36656 | 25.43636 | 2995 ft | 217 kts | 204° |
| 2026-04-28 16:53 | 35.35475 | 25.42597 | 3004 ft | 204 kts | 233° |
| 2026-04-28 16:53 | 35.34758 | 25.41199 | 2969 ft | 185 kts | 250° |
| 2026-04-28 16:54 | 35.34237 | 25.39814 | 2976 ft | 177 kts | 249° |
| 2026-04-28 16:54 | 35.33721 | 25.38451 | 2988 ft | 176 kts | 249° |
| 2026-04-28 16:54 | 35.33200 | 25.37081 | 3009 ft | 180 kts | 249° |
| 2026-04-28 16:54 | 35.32875 | 25.36139 | 2987 ft | 182 kts | 258° |
| 2026-04-28 16:55 | 35.32900 | 25.34128 | 2803 ft | 179 kts | 278° |
| 2026-04-28 16:55 | 35.32987 | 25.32634 | 2561 ft | 173 kts | 278° |
| 2026-04-28 16:55 | 35.33075 | 25.31206 | 2330 ft | 161 kts | 279° |
| 2026-04-28 16:55 | 35.33160 | 25.29898 | 2082 ft | 148 kts | 279° |
| 2026-04-28 16:56 | 35.33240 | 25.28712 | 1878 ft | 136 kts | 281° |
| 2026-04-28 16:56 | 35.33322 | 25.27547 | 1669 ft | 137 kts | 279° |
| 2026-04-28 16:56 | 35.33401 | 25.26386 | 1480 ft | 137 kts | 277° |
| 2026-04-28 16:56 | 35.33479 | 25.25229 | 1258 ft | 134 kts | 277° |
| 2026-04-28 16:57 | 35.33558 | 25.24081 | 1040 ft | 136 kts | 280° |
| 2026-04-28 16:57 | 35.33650 | 25.22917 | 769 ft | 143 kts | 279° |
| 2026-04-28 16:57 | 35.33708 | 25.21684 | 571 ft | 144 kts | 279° |
| 2026-04-28 16:57 | 35.33790 | 25.20475 | 380 ft | 142 kts | 280° |
| 2026-04-28 16:58 | 35.33875 | 25.19316 | 183 ft | 132 kts | 279° |
| 2026-04-28 16:58 | 35.33961 | 25.18235 | 94 ft | 111 kts | 274° |
| 2026-04-28 16:58 | 35.34007 | 25.17545 | 90 ft | 57 kts | 275° |
| 2026-04-28 16:58 | 35.34026 | 25.17238 | 89 ft | 22 kts | 268° |
| 2026-04-28 16:59 | 35.33986 | 25.17083 | 89 ft | 14 kts | 244° |
| 2026-04-28 16:59 | 35.33946 | 25.17067 | 91 ft | 8 kts | 126° |
| 2026-04-28 16:59 | 35.33937 | 25.17131 | 89 ft | 8 kts | 94° |
| 2026-04-28 16:59 | 35.33929 | 25.17252 | 90 ft | 22 kts | 95° |
| 2026-04-28 17:00 | 35.33923 | 25.17356 | 90 ft | 11 kts | 93° |
| 2026-04-28 17:00 | 35.33922 | 25.17389 | 90 ft | 0 kts | 92° |
| 2026-04-28 17:00 | 35.33922 | 25.17390 | 90 ft | 1 kts | 93° |
| 2026-04-28 17:00 | 35.33915 | 25.17467 | 90 ft | 17 kts | 96° |
| 2026-04-28 17:01 | 35.33901 | 25.17606 | 90 ft | 14 kts | 120° |
| 2026-04-28 17:01 | 35.33846 | 25.17594 | 94 ft | 8 kts | 271° |
| 2026-04-28 17:01 | 35.33856 | 25.17563 | 91 ft | 3 kts | 313° |
| 2026-04-28 17:01 | 35.33867 | 25.17551 | 90 ft | 1 kts | 314° |
| 2026-04-28 17:02 | 35.33869 | 25.17547 | 90 ft | 0 kts | 312° |